Terminal Aerodrome Forecast
Issued by NWS

Current Version | Previous Version | Graphics & Text | Print | Product List | Glossary On
Versions: 1 2 3 4 5 6 7 8 9 10 11 12 13 14 15 16 17 18 19 20 21 22 23 24
000
FTUS41 KPBZ 261700
TAFHLG
TAF
KHLG 261739Z 2618/2718 01004KT 1 1/2SM -SN OVC020
     FM262000 VRB03KT 4SM -SN OVC015
     FM262100 33003KT P6SM OVC010
     FM270100 33003KT P6SM OVC015
     FM270900 VRB03KT 5SM BR OVC015
     FM271600 31007KT 5SM BR OVC020
     FM271700 30008KT P6SM OVC025=

USA.gov is the U.S. government's official web portal to all federal, state and local government web resources and services.